Time;durP1;ratioP1;P1;durP2;ratioP2;P2;SDS_P1;SDS_P2;PMS_P1;PMS_P2;Temp;Humidity;BMP_temperature;BMP_pressure;BME280_temperature;BME280_humidity;BME280_pressure;Samples;Min_cycle;Max_cycle;Signal;HPM_P1;HPM_P2
2021/12/11 00:01:17;;;;;;;;;;;22.90;49.50;;;;;;5076162;28;1051;-28
2021/12/11 00:03:45;;;;;;;;;;;22.90;49.60;;;;;;5075731;28;1112;-29
2021/12/11 00:06:14;;;;;;;;;;;22.80;49.70;;;;;;5074891;28;1253;-29
2021/12/11 00:08:45;;;;;;;;;;;22.80;49.70;;;;;;5074562;28;1879;-28
2021/12/11 00:11:13;;;;;;;;;;;22.80;49.90;;;;;;5073847;28;1159;-28
2021/12/11 00:13:42;;;;;;;;;;;22.70;49.80;;;;;;5075382;28;994;-30
2021/12/11 00:16:10;;;;;;;;;;;22.70;50.00;;;;;;5075216;28;988;-30
2021/12/11 00:18:39;;;;;;;;;;;22.70;50.00;;;;;;5074829;28;968;-30
2021/12/11 00:21:07;;;;;;;;;;;22.60;49.90;;;;;;5075270;28;1004;-29
2021/12/11 00:23:36;;;;;;;;;;;22.70;50.00;;;;;;5074749;27;1057;-30
2021/12/11 00:26:04;;;;;;;;;;;22.60;50.00;;;;;;5074617;28;1028;-28
2021/12/11 00:28:31;;;;;;;;;;;22.70;50.00;;;;;;5074414;28;1898;-28
2021/12/11 00:30:58;;;;;;;;;;;22.70;49.90;;;;;;5074993;28;1012;-29
2021/12/11 00:33:26;;;;;;;;;;;22.70;49.90;;;;;;5075516;28;1008;-28
2021/12/11 00:35:55;;;;;;;;;;;22.70;49.80;;;;;;5075836;28;1043;-28
2021/12/11 00:38:24;;;;;;;;;;;22.70;49.80;;;;;;5075307;28;952;-28
2021/12/11 00:40:52;;;;;;;;;;;22.70;50.00;;;;;;5075112;28;1036;-26
2021/12/11 00:43:21;;;;;;;;;;;22.70;49.70;;;;;;5075064;28;849;-28
2021/12/11 00:45:49;;;;;;;;;;;22.70;49.70;;;;;;5074557;28;1233;-27
2021/12/11 00:48:16;;;;;;;;;;;22.70;49.70;;;;;;5074708;28;1876;-26
2021/12/11 00:50:45;;;;;;;;;;;22.60;49.70;;;;;;5075367;28;1910;-29
2021/12/11 00:53:14;;;;;;;;;;;22.50;49.90;;;;;;5074395;28;1012;-27
2021/12/11 00:55:44;;;;;;;;;;;22.50;49.90;;;;;;5074719;28;1011;-26
2021/12/11 00:58:11;;;;;;;;;;;22.50;50.00;;;;;;5074874;28;1054;-27
2021/12/11 01:00:41;;;;;;;;;;;22.50;50.00;;;;;;5074138;28;964;-28
2021/12/11 01:03:08;;;;;;;;;;;22.50;50.00;;;;;;5073192;28;936;-27
2021/12/11 01:05:36;;;;;;;;;;;22.50;50.00;;;;;;5074426;28;1000;-28
2021/12/11 01:08:14;;;;;;;;;;;22.50;50.00;;;;;;5075253;28;975;-30
2021/12/11 01:10:40;;;;;;;;;;;22.60;50.00;;;;;;5074433;28;1902;-28
2021/12/11 01:13:07;;;;;;;;;;;22.60;49.90;;;;;;5075058;28;932;-28
2021/12/11 01:15:36;;;;;;;;;;;22.50;49.70;;;;;;5074660;27;1006;-31
2021/12/11 01:18:22;;;;;;;;;;;22.60;49.90;;;;;;5074355;28;1012;-30
2021/12/11 01:20:56;;;;;;;;;;;22.50;49.90;;;;;;5073822;28;1005;-28
2021/12/11 01:23:45;;;;;;;;;;;22.50;49.90;;;;;;5074016;28;1174;-28
2021/12/11 01:26:14;;;;;;;;;;;22.50;49.80;;;;;;5074429;28;1020;-30
2021/12/11 01:28:41;;;;;;;;;;;22.50;49.70;;;;;;5074717;28;1983;-31
2021/12/11 01:31:09;;;;;;;;;;;22.50;49.80;;;;;;5073661;28;1043;-28
2021/12/11 01:33:36;;;;;;;;;;;22.60;49.90;;;;;;5073835;28;948;-28
2021/12/11 01:36:04;;;;;;;;;;;22.60;49.90;;;;;;5073981;28;870;-30
2021/12/11 01:38:32;;;;;;;;;;;22.60;49.90;;;;;;5073429;28;984;-29
2021/12/11 01:41:01;;;;;;;;;;;22.50;49.90;;;;;;5073620;28;1015;-27
2021/12/11 01:43:30;;;;;;;;;;;22.50;50.00;;;;;;5074086;28;1787;-28
2021/12/11 01:45:58;;;;;;;;;;;22.50;49.80;;;;;;5074932;28;928;-29
2021/12/11 01:48:27;;;;;;;;;;;22.50;50.00;;;;;;5074562;28;995;-28
2021/12/11 01:50:55;;;;;;;;;;;22.50;49.80;;;;;;5074886;28;1910;-29
2021/12/11 01:53:24;;;;;;;;;;;22.40;49.90;;;;;;5074479;28;1080;-29
2021/12/11 01:55:54;;;;;;;;;;;22.40;49.70;;;;;;5073626;28;916;-27
2021/12/11 01:58:23;;;;;;;;;;;22.40;49.70;;;;;;5073569;28;1047;-27
2021/12/11 02:00:51;;;;;;;;;;;22.50;49.80;;;;;;5073465;28;1021;-30
2021/12/11 02:03:19;;;;;;;;;;;22.40;49.90;;;;;;5076155;28;1000;-28
2021/12/11 02:05:46;;;;;;;;;;;22.40;49.80;;;;;;5075371;28;971;-27
2021/12/11 02:08:15;;;;;;;;;;;22.40;49.90;;;;;;5075186;28;996;-27
2021/12/11 02:10:44;;;;;;;;;;;22.40;49.80;;;;;;5074686;28;1910;-27
2021/12/11 02:13:14;;;;;;;;;;;22.40;50.00;;;;;;5074807;28;976;-28
2021/12/11 02:15:47;;;;;;;;;;;22.40;50.00;;;;;;5074627;28;1027;-27
2021/12/11 02:18:17;;;;;;;;;;;22.40;49.90;;;;;;5074796;28;1015;-29
2021/12/11 02:20:45;;;;;;;;;;;22.40;49.70;;;;;;5074783;28;1008;-27
2021/12/11 02:23:14;;;;;;;;;;;22.30;49.70;;;;;;5074726;28;1238;-29
2021/12/11 02:25:44;;;;;;;;;;;22.40;49.80;;;;;;5074212;27;988;-34
2021/12/11 02:28:13;;;;;;;;;;;22.40;49.70;;;;;;5074678;27;1018;-28
2021/12/11 02:30:42;;;;;;;;;;;22.40;49.60;;;;;;5074194;28;1902;-29
2021/12/11 02:33:13;;;;;;;;;;;22.40;49.70;;;;;;5074079;28;964;-27
2021/12/11 02:35:41;;;;;;;;;;;22.30;49.90;;;;;;5074386;28;1027;-30
2021/12/11 02:38:13;;;;;;;;;;;22.40;49.80;;;;;;5074787;28;1007;-28
2021/12/11 02:40:45;;;;;;;;;;;22.30;50.00;;;;;;5074348;28;1024;-28
2021/12/11 02:43:14;;;;;;;;;;;22.30;49.90;;;;;;5074131;28;1011;-28
2021/12/11 02:45:44;;;;;;;;;;;22.40;49.90;;;;;;5074055;28;1011;-27
2021/12/11 02:48:15;;;;;;;;;;;22.30;49.90;;;;;;5073866;28;987;-27
2021/12/11 02:50:44;;;;;;;;;;;22.30;49.90;;;;;;5073804;28;2034;-27
2021/12/11 02:53:13;;;;;;;;;;;22.40;49.90;;;;;;5074001;28;1011;-27
2021/12/11 02:55:41;;;;;;;;;;;22.40;50.00;;;;;;5074104;28;1011;-26
2021/12/11 02:58:11;;;;;;;;;;;22.40;50.00;;;;;;5073690;28;960;-27
2021/12/11 03:00:40;;;;;;;;;;;22.40;50.00;;;;;;5073635;28;1004;-31
2021/12/11 03:03:08;;;;;;;;;;;22.40;50.00;;;;;;5073792;28;960;-27
2021/12/11 03:05:40;;;;;;;;;;;22.30;50.00;;;;;;5074411;27;1011;-28
2021/12/11 03:08:08;;;;;;;;;;;22.30;50.10;;;;;;5073736;27;931;-28
2021/12/11 03:10:36;;;;;;;;;;;22.40;50.00;;;;;;5074033;27;1898;-27
2021/12/11 03:13:04;;;;;;;;;;;22.40;50.10;;;;;;5074880;28;972;-27
2021/12/11 03:15:32;;;;;;;;;;;22.30;50.00;;;;;;5074165;28;1762;-27
2021/12/11 03:17:59;;;;;;;;;;;22.30;50.10;;;;;;5073539;28;1203;-27
2021/12/11 03:20:26;;;;;;;;;;;22.40;50.10;;;;;;5074238;28;1012;-28
2021/12/11 03:22:53;;;;;;;;;;;22.30;49.90;;;;;;5074588;28;1143;-27
2021/12/11 03:25:22;;;;;;;;;;;22.40;49.90;;;;;;5074256;28;981;-29
2021/12/11 03:27:49;;;;;;;;;;;22.30;49.90;;;;;;5077161;28;996;-27
2021/12/11 03:30:21;;;;;;;;;;;22.30;49.90;;;;;;5077423;28;1906;-27
2021/12/11 03:32:49;;;;;;;;;;;22.30;49.90;;;;;;5078240;27;1018;-29
2021/12/11 03:35:16;;;;;;;;;;;22.30;50.00;;;;;;5077604;28;920;-27
2021/12/11 03:37:47;;;;;;;;;;;22.40;49.90;;;;;;5078337;28;973;-27
2021/12/11 03:40:15;;;;;;;;;;;22.30;50.00;;;;;;5076904;27;1002;-28
2021/12/11 03:42:44;;;;;;;;;;;22.30;49.90;;;;;;5077691;28;995;-27
2021/12/11 03:45:12;;;;;;;;;;;22.30;50.00;;;;;;5077454;28;936;-27
2021/12/11 03:47:41;;;;;;;;;;;22.30;49.90;;;;;;5077459;28;1125;-28
2021/12/11 03:50:12;;;;;;;;;;;22.30;49.90;;;;;;5077193;28;1977;-27
2021/12/11 03:52:40;;;;;;;;;;;22.30;50.00;;;;;;5077502;28;1917;-30
2021/12/11 03:55:07;;;;;;;;;;;22.20;50.10;;;;;;5076946;28;947;-28
2021/12/11 03:57:34;;;;;;;;;;;22.30;50.20;;;;;;5077416;28;1021;-27
2021/12/11 04:00:00;;;;;;;;;;;22.30;50.00;;;;;;5077397;28;1043;-27
2021/12/11 04:02:31;;;;;;;;;;;22.30;50.00;;;;;;5077002;28;1015;-27
2021/12/11 04:05:00;;;;;;;;;;;22.30;50.00;;;;;;5077299;28;991;-26
2021/12/11 04:07:29;;;;;;;;;;;22.30;50.00;;;;;;5077401;28;979;-28
2021/12/11 04:09:56;;;;;;;;;;;22.30;50.00;;;;;;5076896;27;1910;-30
2021/12/11 04:12:24;;;;;;;;;;;22.30;50.00;;;;;;5077104;28;951;-29
2021/12/11 04:14:52;;;;;;;;;;;22.30;50.00;;;;;;5076500;28;1779;-27
2021/12/11 04:17:22;;;;;;;;;;;22.20;50.00;;;;;;5077291;28;1040;-28
2021/12/11 04:19:49;;;;;;;;;;;22.30;49.90;;;;;;5076971;28;1031;-28
2021/12/11 04:22:16;;;;;;;;;;;22.30;50.00;;;;;;5076612;28;1164;-28
2021/12/11 04:24:46;;;;;;;;;;;22.30;49.90;;;;;;5076918;28;999;-29
2021/12/11 04:27:14;;;;;;;;;;;22.30;49.80;;;;;;5077210;28;995;-26
2021/12/11 04:29:41;;;;;;;;;;;22.20;49.90;;;;;;5077040;28;1894;-30
2021/12/11 04:32:08;;;;;;;;;;;22.30;49.90;;;;;;5076991;28;1001;-28
2021/12/11 04:34:36;;;;;;;;;;;22.30;49.90;;;;;;5076798;28;932;-29
2021/12/11 04:37:10;;;;;;;;;;;22.30;49.90;;;;;;5076009;28;1015;-30
2021/12/11 04:39:38;;;;;;;;;;;22.30;49.90;;;;;;5076872;28;932;-30
2021/12/11 04:42:15;;;;;;;;;;;22.20;49.90;;;;;;5075310;28;1018;-28
2021/12/11 04:44:45;;;;;;;;;;;22.20;49.90;;;;;;5076153;28;984;-28
2021/12/11 04:47:16;;;;;;;;;;;22.30;49.90;;;;;;5076409;28;1012;-27
2021/12/11 04:49:50;;;;;;;;;;;22.30;49.90;;;;;;5076210;28;933;-28
2021/12/11 04:52:18;;;;;;;;;;;22.20;50.00;;;;;;5076143;28;943;-29
2021/12/11 04:54:58;;;;;;;;;;;22.20;50.00;;;;;;5076089;28;1023;-28
2021/12/11 05:00:18;;;;;;;;;;;22.20;50.10;;;;;;5075409;28;753;-27
2021/12/11 05:05:44;;;;;;;;;;;22.20;50.00;;;;;;5077972;27;995;-28
2021/12/11 05:08:37;;;;;;;;;;;22.30;50.00;;;;;;5075826;28;1010;-28
2021/12/11 05:11:05;;;;;;;;;;;22.30;50.00;;;;;;5076497;27;2301;-28
2021/12/11 05:13:34;;;;;;;;;;;22.30;50.10;;;;;;5075111;27;943;-28
2021/12/11 05:16:02;;;;;;;;;;;22.30;50.00;;;;;;5075313;28;1023;-28
2021/12/11 05:18:30;;;;;;;;;;;22.30;50.00;;;;;;5075460;27;994;-30
2021/12/11 05:20:59;;;;;;;;;;;22.30;50.00;;;;;;5074686;28;1019;-29
2021/12/11 05:23:26;;;;;;;;;;;22.30;50.10;;;;;;5073877;28;1627;-28
2021/12/11 05:25:53;;;;;;;;;;;22.30;50.20;;;;;;5074178;28;1011;-28
2021/12/11 05:28:19;;;;;;;;;;;22.30;50.00;;;;;;5073642;28;964;-27
2021/12/11 05:30:49;;;;;;;;;;;22.30;50.00;;;;;;5073421;28;1914;-28
2021/12/11 05:33:16;;;;;;;;;;;22.30;50.10;;;;;;5073788;28;984;-27
2021/12/11 05:35:43;;;;;;;;;;;22.30;50.00;;;;;;5074187;28;1015;-30
2021/12/11 05:38:11;;;;;;;;;;;22.30;50.00;;;;;;5074640;28;964;-28
2021/12/11 05:40:40;;;;;;;;;;;22.40;50.10;;;;;;5074206;28;1027;-27
2021/12/11 05:43:07;;;;;;;;;;;22.40;49.90;;;;;;5074611;28;1038;-28
2021/12/11 05:45:35;;;;;;;;;;;22.40;49.90;;;;;;5074238;28;1019;-28
2021/12/11 05:48:04;;;;;;;;;;;22.40;49.90;;;;;;5073953;28;935;-28
2021/12/11 05:50:33;;;;;;;;;;;22.30;49.80;;;;;;5072933;28;1985;-30
2021/12/11 05:53:00;;;;;;;;;;;22.40;49.80;;;;;;5074802;28;1015;-28
2021/12/11 05:55:29;;;;;;;;;;;22.40;49.80;;;;;;5074838;27;1015;-27
2021/12/11 05:57:57;;;;;;;;;;;22.30;49.90;;;;;;5074775;28;992;-28
2021/12/11 06:00:26;;;;;;;;;;;22.30;49.80;;;;;;5074561;28;1004;-30
2021/12/11 06:02:53;;;;;;;;;;;22.30;49.70;;;;;;5074283;28;1014;-28
2021/12/11 06:05:21;;;;;;;;;;;22.30;49.70;;;;;;5074312;28;1874;-25
2021/12/11 06:07:48;;;;;;;;;;;22.30;49.70;;;;;;5074288;28;1014;-27
2021/12/11 06:10:17;;;;;;;;;;;22.40;49.60;;;;;;5074160;28;1902;-26
2021/12/11 06:12:45;;;;;;;;;;;22.30;49.60;;;;;;5074631;28;1120;-26
2021/12/11 06:15:12;;;;;;;;;;;22.30;49.70;;;;;;5074359;28;919;-27
2021/12/11 06:17:41;;;;;;;;;;;22.20;49.80;;;;;;5073967;28;1105;-28
2021/12/11 06:20:09;;;;;;;;;;;22.20;50.00;;;;;;5073799;28;999;-27
2021/12/11 06:22:37;;;;;;;;;;;22.20;49.90;;;;;;5074573;28;1132;-26
2021/12/11 06:25:05;;;;;;;;;;;22.20;49.80;;;;;;5074618;28;945;-27
2021/12/11 06:27:32;;;;;;;;;;;22.20;49.80;;;;;;5074309;28;1016;-26
2021/12/11 06:29:59;;;;;;;;;;;22.20;49.90;;;;;;5074816;28;928;-26
2021/12/11 06:32:26;;;;;;;;;;;22.20;50.00;;;;;;5074775;28;1902;-27
2021/12/11 06:34:53;;;;;;;;;;;22.20;50.00;;;;;;5074249;28;1055;-26
2021/12/11 06:37:21;;;;;;;;;;;22.20;49.90;;;;;;5074127;28;999;-27
2021/12/11 06:39:49;;;;;;;;;;;22.20;49.90;;;;;;5074389;28;956;-25
2021/12/11 06:42:17;;;;;;;;;;;22.20;49.80;;;;;;5074944;28;1082;-27
2021/12/11 06:44:44;;;;;;;;;;;22.20;49.80;;;;;;5074322;28;964;-27
2021/12/11 06:47:11;;;;;;;;;;;22.20;50.80;;;;;;5074069;28;956;-29
2021/12/11 06:49:39;;;;;;;;;;;22.20;49.80;;;;;;5073606;28;952;-26
2021/12/11 06:52:07;;;;;;;;;;;22.20;49.80;;;;;;5074213;28;1973;-27
2021/12/11 06:54:34;;;;;;;;;;;22.10;49.80;;;;;;5073922;28;992;-26
2021/12/11 06:57:02;;;;;;;;;;;22.20;50.00;;;;;;5073466;28;980;-27
2021/12/11 06:59:28;;;;;;;;;;;22.10;49.80;;;;;;5073665;28;1027;-26
2021/12/11 07:01:55;;;;;;;;;;;22.20;49.90;;;;;;5076523;28;995;-26
2021/12/11 07:04:22;;;;;;;;;;;22.20;49.80;;;;;;5077647;28;939;-28
2021/12/11 07:06:50;;;;;;;;;;;22.20;49.80;;;;;;5077646;28;1039;-25
2021/12/11 07:09:17;;;;;;;;;;;22.20;50.00;;;;;;5077224;28;1132;-28
2021/12/11 07:11:45;;;;;;;;;;;22.20;50.10;;;;;;5077034;28;1988;-28
2021/12/11 07:14:14;;;;;;;;;;;22.20;50.00;;;;;;5076801;28;941;-27
2021/12/11 07:16:40;;;;;;;;;;;22.20;49.90;;;;;;5076674;28;1002;-27
2021/12/11 07:19:08;;;;;;;;;;;22.30;49.90;;;;;;5076938;28;971;-27
2021/12/11 07:21:35;;;;;;;;;;;22.30;49.90;;;;;;5077102;28;992;-26
2021/12/11 07:24:03;;;;;;;;;;;22.30;49.80;;;;;;5076157;27;1173;-26
2021/12/11 07:26:33;;;;;;;;;;;22.30;49.80;;;;;;5076029;28;1051;-26
2021/12/11 07:29:02;;;;;;;;;;;22.30;49.80;;;;;;5077167;28;948;-26
2021/12/11 07:31:30;;;;;;;;;;;22.20;49.80;;;;;;5076716;27;1977;-28
2021/12/11 07:33:57;;;;;;;;;;;22.20;49.90;;;;;;5074931;28;1014;-26
2021/12/11 07:36:24;;;;;;;;;;;22.30;49.70;;;;;;5076076;28;945;-29
2021/12/11 07:38:51;;;;;;;;;;;22.30;49.70;;;;;;5076635;28;947;-31
2021/12/11 07:41:19;;;;;;;;;;;22.30;49.70;;;;;;5075227;28;884;-29
2021/12/11 07:43:47;;;;;;;;;;;22.40;49.60;;;;;;5074057;28;1003;-30
2021/12/11 07:46:16;;;;;;;;;;;22.40;49.60;;;;;;5075158;28;1043;-28
2021/12/11 07:48:45;;;;;;;;;;;22.40;49.40;;;;;;5075242;28;932;-27
2021/12/11 07:51:12;;;;;;;;;;;22.50;49.20;;;;;;5076009;28;1981;-31
2021/12/11 07:53:39;;;;;;;;;;;22.50;49.40;;;;;;5074980;28;936;-31
2021/12/11 07:56:05;;;;;;;;;;;22.50;49.40;;;;;;5075338;28;1018;-29
2021/12/11 07:58:34;;;;;;;;;;;22.50;49.40;;;;;;5075201;28;987;-30
2021/12/11 08:01:03;;;;;;;;;;;22.50;49.50;;;;;;5074830;28;972;-32
2021/12/11 08:03:30;;;;;;;;;;;22.60;49.40;;;;;;5074889;28;1003;-31
2021/12/11 08:05:58;;;;;;;;;;;22.50;49.30;;;;;;5074876;28;1027;-31
2021/12/11 08:08:25;;;;;;;;;;;22.60;49.50;;;;;;5073520;28;995;-31
2021/12/11 08:10:53;;;;;;;;;;;22.90;49.60;;;;;;5073922;28;1898;-32
2021/12/11 08:13:20;;;;;;;;;;;23.00;48.60;;;;;;5073316;28;1755;-30
2021/12/11 08:15:47;;;;;;;;;;;23.10;49.00;;;;;;5073312;28;948;-31
2021/12/11 08:18:14;;;;;;;;;;;23.20;48.60;;;;;;5074901;28;1026;-32
2021/12/11 08:20:42;;;;;;;;;;;23.30;48.70;;;;;;5076020;28;1273;-31
2021/12/11 08:23:11;;;;;;;;;;;23.30;48.40;;;;;;5075364;28;1045;-32
2021/12/11 08:25:39;;;;;;;;;;;23.20;48.20;;;;;;5074428;27;1011;-30
2021/12/11 08:28:07;;;;;;;;;;;23.30;48.50;;;;;;5073757;28;939;-31
2021/12/11 08:30:36;;;;;;;;;;;23.40;48.80;;;;;;5074037;28;999;-32
2021/12/11 08:33:03;;;;;;;;;;;23.20;48.70;;;;;;5072674;28;2030;-32
2021/12/11 08:35:30;;;;;;;;;;;23.20;48.70;;;;;;5072681;28;1021;-31
2021/12/11 08:37:57;;;;;;;;;;;23.20;48.60;;;;;;5073268;28;1007;-32
2021/12/11 08:40:26;;;;;;;;;;;23.10;48.40;;;;;;5073583;28;907;-31
2021/12/11 08:42:53;;;;;;;;;;;23.00;48.40;;;;;;5074524;28;888;-32
2021/12/11 08:45:24;;;;;;;;;;;23.00;48.40;;;;;;5074800;28;979;-31
2021/12/11 08:47:53;;;;;;;;;;;23.00;48.50;;;;;;5075142;28;1862;-30
2021/12/11 08:50:21;;;;;;;;;;;22.90;48.50;;;;;;5061628;28;1335;-31
2021/12/11 08:52:49;;;;;;;;;;;23.00;48.50;;;;;;5054898;28;1897;-32
2021/12/11 08:55:18;;;;;;;;;;;23.00;48.50;;;;;;5054588;28;999;-33
2021/12/11 08:57:46;;;;;;;;;;;23.00;48.50;;;;;;5054386;28;1087;-31
2021/12/11 09:00:16;;;;;;;;;;;22.90;48.50;;;;;;5054906;28;943;-31
2021/12/11 09:02:45;;;;;;;;;;;22.90;48.60;;;;;;5054752;28;1105;-32
2021/12/11 09:05:15;;;;;;;;;;;22.90;48.70;;;;;;5054520;28;1018;-32
2021/12/11 09:07:46;;;;;;;;;;;22.90;48.50;;;;;;5054787;28;986;-32
2021/12/11 09:10:15;;;;;;;;;;;22.90;48.50;;;;;;5054297;28;1016;-32
2021/12/11 09:12:43;;;;;;;;;;;22.90;48.50;;;;;;5054768;28;1979;-33
2021/12/11 09:15:18;;;;;;;;;;;22.80;48.80;;;;;;5054472;28;1015;-31
2021/12/11 09:17:48;;;;;;;;;;;22.80;48.80;;;;;;5053962;28;1027;-32
2021/12/11 09:20:17;;;;;;;;;;;22.80;48.50;;;;;;5053552;28;992;-30
2021/12/11 09:22:47;;;;;;;;;;;22.80;48.50;;;;;;5066635;27;1345;-30
2021/12/11 09:25:16;;;;;;;;;;;22.90;48.60;;;;;;5157525;27;991;-32
2021/12/11 09:27:45;;;;;;;;;;;22.80;48.50;;;;;;5159235;27;1079;-30
2021/12/11 09:30:16;;;;;;;;;;;22.80;48.50;;;;;;5152188;27;963;-32
2021/12/11 09:32:44;;;;;;;;;;;22.70;48.70;;;;;;5159092;27;1955;-32
2021/12/11 09:35:12;;;;;;;;;;;22.80;48.70;;;;;;5158653;27;1055;-31
2021/12/11 09:37:40;;;;;;;;;;;22.70;49.00;;;;;;5158525;27;1106;-29
2021/12/11 09:40:08;;;;;;;;;;;22.70;48.90;;;;;;5158857;27;1026;-30
2021/12/11 09:42:35;;;;;;;;;;;22.70;49.10;;;;;;5158707;27;983;-29
2021/12/11 09:45:05;;;;;;;;;;;22.70;49.00;;;;;;5158626;27;972;-29
2021/12/11 09:47:35;;;;;;;;;;;22.60;49.20;;;;;;5158725;27;943;-30
2021/12/11 09:50:09;;;;;;;;;;;22.60;49.20;;;;;;5157865;27;932;-30
2021/12/11 09:52:37;;;;;;;;;;;22.60;49.40;;;;;;5158170;27;2000;-30
2021/12/11 09:55:06;;;;;;;;;;;22.60;49.30;;;;;;5157845;27;984;-31
2021/12/11 09:57:35;;;;;;;;;;;22.50;49.30;;;;;;5157188;27;955;-30
2021/12/11 10:00:05;;;;;;;;;;;22.50;49.10;;;;;;5156695;27;1034;-30
2021/12/11 10:02:33;;;;;;;;;;;22.50;49.40;;;;;;5158193;27;918;-31
2021/12/11 10:05:05;;;;;;;;;;;22.50;49.80;;;;;;5157340;27;1313;-30
2021/12/11 10:07:36;;;;;;;;;;;22.50;49.40;;;;;;5157838;27;975;-31
2021/12/11 10:10:10;;;;;;;;;;;22.40;49.20;;;;;;5157736;27;999;-30
2021/12/11 10:12:38;;;;;;;;;;;22.40;49.50;;;;;;5157415;27;1982;-30
2021/12/11 10:15:08;;;;;;;;;;;22.40;49.50;;;;;;5158192;27;983;-30
2021/12/11 10:17:40;;;;;;;;;;;22.40;49.70;;;;;;5157103;27;1120;-31
2021/12/11 10:20:10;;;;;;;;;;;22.40;49.70;;;;;;5156055;27;1007;-30
2021/12/11 10:22:38;;;;;;;;;;;22.40;49.50;;;;;;5157292;27;1094;-30
2021/12/11 10:25:07;;;;;;;;;;;22.40;49.50;;;;;;5157229;27;943;-30
2021/12/11 10:27:34;;;;;;;;;;;22.30;49.50;;;;;;5157909;27;1031;-29
2021/12/11 10:30:02;;;;;;;;;;;22.30;49.70;;;;;;5157336;27;936;-30
2021/12/11 10:32:32;;;;;;;;;;;22.30;49.50;;;;;;5157369;27;1978;-30
2021/12/11 10:35:00;;;;;;;;;;;22.30;49.50;;;;;;5156858;27;1018;-30
2021/12/11 10:37:32;;;;;;;;;;;22.30;49.60;;;;;;5157952;27;1070;-31
2021/12/11 10:40:01;;;;;;;;;;;22.30;49.60;;;;;;5157188;27;937;-31
2021/12/11 10:42:28;;;;;;;;;;;22.20;49.60;;;;;;5156300;27;983;-30
2021/12/11 10:44:58;;;;;;;;;;;22.30;49.70;;;;;;5156180;27;2839;-29
2021/12/11 10:47:26;;;;;;;;;;;22.20;49.60;;;;;;5156336;27;895;-30
2021/12/11 10:49:54;;;;;;;;;;;22.20;49.70;;;;;;5156611;27;940;-32
2021/12/11 10:52:23;;;;;;;;;;;22.30;49.80;;;;;;5156117;27;1910;-31
2021/12/11 10:54:51;;;;;;;;;;;22.30;49.80;;;;;;5156903;27;1023;-30
2021/12/11 10:57:18;;;;;;;;;;;22.30;49.50;;;;;;5156661;27;991;-31
2021/12/11 10:59:47;;;;;;;;;;;22.30;49.70;;;;;;5154608;27;975;-31
2021/12/11 11:02:15;;;;;;;;;;;22.30;49.70;;;;;;5156284;27;948;-30
2021/12/11 11:04:43;;;;;;;;;;;22.30;49.50;;;;;;5156487;27;944;-30
2021/12/11 11:07:12;;;;;;;;;;;22.30;49.60;;;;;;5156141;27;995;-30
2021/12/11 11:09:39;;;;;;;;;;;22.40;49.50;;;;;;5156442;27;884;-30
2021/12/11 11:12:07;;;;;;;;;;;22.30;49.60;;;;;;5157123;27;1902;-30
2021/12/11 11:14:34;;;;;;;;;;;22.30;49.60;;;;;;5155968;27;932;-31
2021/12/11 11:17:05;;;;;;;;;;;22.30;49.80;;;;;;5157428;27;1034;-30
2021/12/11 11:19:36;;;;;;;;;;;22.20;49.80;;;;;;5156607;27;1007;-30
2021/12/11 11:22:05;;;;;;;;;;;22.20;49.70;;;;;;5156299;27;1023;-30
2021/12/11 11:24:35;;;;;;;;;;;22.20;49.70;;;;;;5156213;27;944;-30
2021/12/11 11:27:03;;;;;;;;;;;22.20;49.70;;;;;;5155802;27;1018;-31
2021/12/11 11:29:29;;;;;;;;;;;22.20;49.70;;;;;;5156591;27;967;-30
2021/12/11 11:32:07;;;;;;;;;;;22.20;49.90;;;;;;5156794;27;1893;-31
2021/12/11 11:34:40;;;;;;;;;;;22.20;49.80;;;;;;5157102;27;991;-30
2021/12/11 11:37:08;;;;;;;;;;;22.20;49.70;;;;;;5157277;27;1801;-29
2021/12/11 11:39:37;;;;;;;;;;;22.20;49.70;;;;;;5157313;27;1015;-30
2021/12/11 11:42:08;;;;;;;;;;;22.10;49.70;;;;;;5156354;27;979;-30
2021/12/11 11:44:35;;;;;;;;;;;22.10;51.10;;;;;;5157124;27;1028;-30
2021/12/11 11:47:04;;;;;;;;;;;22.10;49.80;;;;;;5158372;27;1008;-30
2021/12/11 11:49:31;;;;;;;;;;;22.10;50.00;;;;;;5160382;27;935;-30
2021/12/11 11:52:00;;;;;;;;;;;22.10;49.80;;;;;;5158678;27;1897;-30
2021/12/11 11:54:28;;;;;;;;;;;22.10;50.00;;;;;;5160033;27;1003;-31
2021/12/11 11:56:59;;;;;;;;;;;22.00;49.90;;;;;;5159418;27;1009;-31
2021/12/11 11:59:25;;;;;;;;;;;22.00;49.90;;;;;;5158929;27;975;-30
2021/12/11 12:01:56;;;;;;;;;;;22.00;50.00;;;;;;5160208;27;944;-33
2021/12/11 12:04:23;;;;;;;;;;;22.10;50.20;;;;;;5160410;27;939;-30
2021/12/11 12:06:54;;;;;;;;;;;22.10;50.00;;;;;;5160133;27;971;-31
2021/12/11 12:09:21;;;;;;;;;;;22.10;49.70;;;;;;5159662;27;954;-31
2021/12/11 12:11:48;;;;;;;;;;;22.10;49.70;;;;;;5160119;27;955;-30
2021/12/11 12:14:18;;;;;;;;;;;22.10;49.70;;;;;;5159698;27;1977;-31
2021/12/11 12:16:46;;;;;;;;;;;22.10;49.60;;;;;;5159225;27;994;-30
2021/12/11 12:19:13;;;;;;;;;;;22.20;49.60;;;;;;5158548;27;1014;-31
2021/12/11 12:21:41;;;;;;;;;;;22.20;49.70;;;;;;5159491;27;1752;-32
2021/12/11 12:24:08;;;;;;;;;;;22.10;49.50;;;;;;5159909;27;1053;-30
2021/12/11 12:26:36;;;;;;;;;;;22.10;49.60;;;;;;5159526;27;960;-30
2021/12/11 12:29:04;;;;;;;;;;;22.10;49.50;;;;;;5159518;27;1002;-31
2021/12/11 12:31:33;;;;;;;;;;;22.10;49.60;;;;;;5159211;27;1885;-30
2021/12/11 12:34:00;;;;;;;;;;;22.10;49.60;;;;;;5158293;27;1905;-30
2021/12/11 12:36:27;;;;;;;;;;;22.10;49.80;;;;;;5160035;27;1016;-31
2021/12/11 12:38:54;;;;;;;;;;;22.10;49.70;;;;;;5159922;27;948;-32
2021/12/11 12:41:22;;;;;;;;;;;22.00;49.80;;;;;;5160198;27;956;-31
2021/12/11 12:44:16;;;;;;;;;;;22.00;49.80;;;;;;5159671;27;935;-30
2021/12/11 12:46:47;;;;;;;;;;;22.00;49.90;;;;;;5159912;27;1000;-30
2021/12/11 12:49:14;;;;;;;;;;;22.00;49.80;;;;;;5159427;27;1015;-31
2021/12/11 12:51:41;;;;;;;;;;;22.00;49.80;;;;;;5159377;27;994;-30
2021/12/11 12:54:09;;;;;;;;;;;22.00;49.80;;;;;;5157858;27;1975;-31
2021/12/11 12:56:38;;;;;;;;;;;22.00;49.90;;;;;;5158375;27;956;-30
2021/12/11 12:59:07;;;;;;;;;;;21.90;49.90;;;;;;5157173;27;987;-32
2021/12/11 13:01:36;;;;;;;;;;;22.00;50.00;;;;;;5158793;27;874;-30
2021/12/11 13:04:06;;;;;;;;;;;22.00;49.90;;;;;;5158141;27;940;-30
2021/12/11 13:06:35;;;;;;;;;;;21.90;50.00;;;;;;5158977;27;1801;-32
2021/12/11 13:09:09;;;;;;;;;;;22.00;49.90;;;;;;5157475;27;1031;-30
2021/12/11 13:11:38;;;;;;;;;;;21.90;50.00;;;;;;5158422;27;980;-30
2021/12/11 13:14:05;;;;;;;;;;;21.90;50.00;;;;;;5158392;27;1984;-30
2021/12/11 13:16:33;;;;;;;;;;;21.90;50.00;;;;;;5159033;27;1054;-31
2021/12/11 13:19:03;;;;;;;;;;;21.80;50.00;;;;;;5158417;27;976;-30
2021/12/11 13:21:33;;;;;;;;;;;21.90;50.00;;;;;;5158603;27;982;-30
2021/12/11 13:24:05;;;;;;;;;;;21.80;49.90;;;;;;5157443;27;1017;-30
2021/12/11 13:26:33;;;;;;;;;;;21.90;50.00;;;;;;5158176;27;1007;-32
2021/12/11 13:29:01;;;;;;;;;;;21.90;50.00;;;;;;5158538;27;1042;-30
2021/12/11 13:31:30;;;;;;;;;;;21.80;50.00;;;;;;5158029;27;876;-31
2021/12/11 13:33:57;;;;;;;;;;;21.90;50.00;;;;;;5157851;27;1905;-31
2021/12/11 13:36:25;;;;;;;;;;;21.80;50.00;;;;;;5158093;27;927;-31
2021/12/11 13:38:55;;;;;;;;;;;21.90;50.10;;;;;;5157747;27;995;-29
2021/12/11 13:41:25;;;;;;;;;;;21.90;50.00;;;;;;5157650;27;980;-30
2021/12/11 13:43:52;;;;;;;;;;;21.90;50.00;;;;;;5157315;27;903;-33
2021/12/11 13:46:18;;;;;;;;;;;21.80;50.00;;;;;;5157217;27;1230;-31
2021/12/11 13:48:45;;;;;;;;;;;21.80;50.00;;;;;;5158315;27;1046;-32
2021/12/11 13:51:13;;;;;;;;;;;21.80;50.00;;;;;;5156758;27;1023;-33
2021/12/11 13:53:42;;;;;;;;;;;21.90;49.90;;;;;;5157902;27;1897;-30
2021/12/11 13:56:13;;;;;;;;;;;21.90;49.80;;;;;;5157769;27;940;-32
2021/12/11 13:58:39;;;;;;;;;;;21.80;49.90;;;;;;5156911;27;943;-32
2021/12/11 14:01:09;;;;;;;;;;;21.80;49.80;;;;;;5157775;27;921;-32
2021/12/11 14:03:36;;;;;;;;;;;21.90;50.00;;;;;;5157311;27;1006;-33
2021/12/11 14:06:05;;;;;;;;;;;21.90;49.30;;;;;;5155752;27;1018;-31
2021/12/11 14:08:33;;;;;;;;;;;21.70;45.40;;;;;;5155618;27;1011;-31
2021/12/11 14:11:01;;;;;;;;;;;21.70;46.70;;;;;;5157702;27;941;-30
2021/12/11 14:13:29;;;;;;;;;;;21.60;47.20;;;;;;5155314;27;1910;-31
2021/12/11 14:15:57;;;;;;;;;;;21.50;47.40;;;;;;5155036;27;956;-32
2021/12/11 14:18:25;;;;;;;;;;;21.50;47.80;;;;;;5154877;27;1081;-33
2021/12/11 14:20:54;;;;;;;;;;;21.50;47.90;;;;;;5155143;27;987;-30
2021/12/11 14:23:22;;;;;;;;;;;21.40;47.80;;;;;;5154767;27;1758;-31
2021/12/11 14:25:49;;;;;;;;;;;21.50;48.00;;;;;;5155189;27;878;-32
2021/12/11 14:28:19;;;;;;;;;;;21.50;48.50;;;;;;5154088;27;967;-31
2021/12/11 14:30:49;;;;;;;;;;;21.50;48.30;;;;;;5155827;27;948;-31
2021/12/11 14:33:16;;;;;;;;;;;21.50;48.50;;;;;;5154927;27;1976;-30
2021/12/11 14:35:43;;;;;;;;;;;21.40;48.50;;;;;;5155942;27;1158;-32
2021/12/11 14:38:12;;;;;;;;;;;21.50;48.90;;;;;;5155228;27;999;-32
2021/12/11 14:40:40;;;;;;;;;;;21.50;49.00;;;;;;5155893;27;1009;-29
2021/12/11 14:43:06;;;;;;;;;;;21.50;48.90;;;;;;5155770;27;988;-30
2021/12/11 14:45:34;;;;;;;;;;;21.50;48.80;;;;;;5153927;27;912;-29
2021/12/11 14:48:03;;;;;;;;;;;21.50;49.20;;;;;;5154661;27;860;-30
2021/12/11 14:50:30;;;;;;;;;;;21.50;50.30;;;;;;5155205;27;1002;-30